createdAt,value
2019-02-27T00:00:24.054Z,99.90
2019-02-27T00:02:53.785Z,99.90
2019-02-27T00:05:23.632Z,99.90
2019-02-27T00:07:54.868Z,99.90
2019-02-27T00:10:23.187Z,99.90
2019-02-27T00:12:52.575Z,99.90
2019-02-27T00:15:21.775Z,99.90
2019-02-27T00:17:51.532Z,99.90
2019-02-27T00:20:21.054Z,99.90
2019-02-27T00:22:50.815Z,99.90
2019-02-27T00:25:20.667Z,99.90
2019-02-27T00:27:49.967Z,99.90
2019-02-27T00:30:19.134Z,99.90
2019-02-27T00:32:50.973Z,99.90
2019-02-27T00:35:18.709Z,99.90
2019-02-27T00:37:51.799Z,99.90
2019-02-27T00:40:18.290Z,99.90
2019-02-27T00:42:47.060Z,99.90
2019-02-27T00:45:15.761Z,99.90
2019-02-27T00:47:44.536Z,99.90
2019-02-27T00:50:13.502Z,99.90
2019-02-27T00:52:42.380Z,99.90
2019-02-27T00:55:11.234Z,99.90
2019-02-27T00:57:40.070Z,99.90
2019-02-27T01:00:15.175Z,99.90
2019-02-27T01:02:44.060Z,99.90
2019-02-27T01:05:12.809Z,99.90
2019-02-27T01:07:41.778Z,99.90
2019-02-27T01:10:12.236Z,99.90
2019-02-27T01:12:41.867Z,99.90
2019-02-27T01:15:14.847Z,99.90
2019-02-27T01:17:43.749Z,99.90
2019-02-27T01:20:14.586Z,99.90
2019-02-27T01:22:43.854Z,99.90
2019-02-27T01:25:12.756Z,99.90
2019-02-27T01:27:41.573Z,99.90
2019-02-27T01:30:15.684Z,99.90
2019-02-27T01:32:44.509Z,99.90
2019-02-27T01:35:17.826Z,99.90
2019-02-27T01:37:45.153Z,99.90
2019-02-27T01:40:17.948Z,99.90
2019-02-27T01:42:45.786Z,99.90
2019-02-27T01:45:20.814Z,99.90
2019-02-27T01:47:48.074Z,99.90
2019-02-27T01:50:28.843Z,99.90
2019-02-27T01:52:57.680Z,99.90
2019-02-27T01:55:26.560Z,99.90
2019-02-27T01:57:55.555Z,99.90
2019-02-27T02:00:24.356Z,99.90
2019-02-27T02:02:53.207Z,99.90
2019-02-27T02:05:26.296Z,99.90
2019-02-27T02:07:52.724Z,99.90
2019-02-27T02:10:21.496Z,99.90
2019-02-27T02:12:59.673Z,99.90
2019-02-27T02:15:49.241Z,99.90
2019-02-27T02:18:48.842Z,99.90
2019-02-27T02:21:37.551Z,99.90
2019-02-27T02:24:20.931Z,99.90
2019-02-27T02:27:22.893Z,99.90
2019-02-27T02:29:57.795Z,99.90
2019-02-27T02:32:52.335Z,99.90
2019-02-27T02:35:36.711Z,99.90
2019-02-27T02:38:17.358Z,99.90
2019-02-27T02:40:52.104Z,99.90
2019-02-27T02:43:44.514Z,99.90
2019-02-27T02:46:16.314Z,99.90
2019-02-27T02:48:50.599Z,99.90
2019-02-27T02:51:37.412Z,99.90
2019-02-27T02:54:14.951Z,99.90
2019-02-27T02:57:21.285Z,99.90
2019-02-27T02:59:59.879Z,99.90
2019-02-27T03:02:48.822Z,99.90
2019-02-27T03:05:24.413Z,99.90
2019-02-27T03:08:19.869Z,99.90
2019-02-27T03:11:01.242Z,99.90
2019-02-27T03:13:41.481Z,99.90
2019-02-27T03:16:12.409Z,99.90
2019-02-27T03:18:44.203Z,99.90
2019-02-27T03:21:27.504Z,99.90
2019-02-27T03:24:01.115Z,99.90
2019-02-27T03:26:35.640Z,99.90
2019-02-27T03:29:16.833Z,99.90
2019-02-27T03:31:57.874Z,99.90
2019-02-27T03:34:47.978Z,99.90
2019-02-27T03:37:32.441Z,99.90
2019-02-27T03:40:16.151Z,99.90
2019-02-27T03:43:10.052Z,99.90
2019-02-27T03:45:44.225Z,99.90
2019-02-27T03:48:27.744Z,99.90
2019-02-27T03:51:07.361Z,99.90
2019-02-27T03:53:47.984Z,99.90
2019-02-27T03:56:43.577Z,99.90
2019-02-27T03:59:23.581Z,99.90
2019-02-27T04:01:57.856Z,99.90
2019-02-27T04:04:47.403Z,99.90
2019-02-27T04:07:37.217Z,99.90
2019-02-27T04:10:06.248Z,99.90
2019-02-27T04:12:35.143Z,99.90
2019-02-27T04:15:05.823Z,99.90
2019-02-27T04:17:33.500Z,99.90
2019-02-27T04:20:02.354Z,99.90
2019-02-27T04:22:36.217Z,99.90
2019-02-27T04:25:01.676Z,99.90
2019-02-27T04:27:30.591Z,99.90
2019-02-27T04:29:59.500Z,99.90
2019-02-27T04:32:28.326Z,99.90
2019-02-27T04:34:57.189Z,99.90
2019-02-27T04:37:26.094Z,99.90
2019-02-27T04:39:54.849Z,99.90
2019-02-27T04:42:25.667Z,99.90
2019-02-27T04:44:54.195Z,99.90
2019-02-27T04:47:22.961Z,99.90
2019-02-27T04:49:51.831Z,99.90
2019-02-27T04:52:21.962Z,99.90
2019-02-27T04:54:51.349Z,99.90
2019-02-27T04:57:20.136Z,99.90
2019-02-27T04:59:49.786Z,99.90
2019-02-27T05:02:19.659Z,99.90
2019-02-27T05:04:49.368Z,99.90
2019-02-27T05:07:20.264Z,99.90
2019-02-27T05:09:48.927Z,99.90
2019-02-27T05:12:17.690Z,99.90
2019-02-27T05:14:46.532Z,99.90
2019-02-27T05:17:15.345Z,99.90
2019-02-27T05:19:44.141Z,99.90
2019-02-27T05:22:12.900Z,99.90
2019-02-27T05:24:41.566Z,99.90
2019-02-27T05:27:10.442Z,99.90
2019-02-27T05:29:39.190Z,99.90
2019-02-27T05:32:08.096Z,99.90
2019-02-27T05:34:36.905Z,99.90
2019-02-27T05:37:06.035Z,99.90
2019-02-27T05:39:34.940Z,99.90
2019-02-27T05:42:06.158Z,99.90
2019-02-27T05:44:34.399Z,99.90
2019-02-27T05:47:03.242Z,99.90
2019-02-27T05:49:31.910Z,99.90
2019-02-27T05:52:00.840Z,99.90
2019-02-27T05:54:29.931Z,99.90
2019-02-27T05:57:01.588Z,99.90
2019-02-27T05:59:30.485Z,99.90
2019-02-27T06:01:59.310Z,99.90
2019-02-27T06:04:28.018Z,99.90
2019-02-27T06:06:56.985Z,99.90
2019-02-27T06:09:25.728Z,99.90
2019-02-27T06:11:54.445Z,99.90
2019-02-27T06:14:23.251Z,99.90
2019-02-27T06:16:52.191Z,99.90
2019-02-27T06:19:21.111Z,99.90
2019-02-27T06:21:50.035Z,99.90
2019-02-27T06:24:19.371Z,99.90
2019-02-27T06:26:48.301Z,99.90
2019-02-27T06:29:17.594Z,99.90
2019-02-27T06:31:47.029Z,99.90
2019-02-27T06:34:16.373Z,99.90
2019-02-27T06:36:45.512Z,99.90
2019-02-27T06:39:14.316Z,99.90
2019-02-27T06:41:43.233Z,99.90
2019-02-27T06:44:12.254Z,99.90
2019-02-27T06:46:41.256Z,99.90
2019-02-27T06:49:10.311Z,99.90
2019-02-27T06:51:39.334Z,99.90
2019-02-27T06:54:08.144Z,99.90
2019-02-27T06:56:37.067Z,99.90
2019-02-27T06:59:05.894Z,99.90
2019-02-27T07:01:34.730Z,99.90
2019-02-27T07:04:04.800Z,99.90
2019-02-27T07:06:33.925Z,99.90
2019-02-27T07:09:02.758Z,99.90
2019-02-27T07:11:31.569Z,99.90
2019-02-27T07:14:00.441Z,99.90
2019-02-27T07:16:29.312Z,99.90
2019-02-27T07:18:58.055Z,99.90
2019-02-27T07:21:32.411Z,99.90
2019-02-27T07:23:58.521Z,99.90
2019-02-27T07:26:27.344Z,99.90
2019-02-27T07:28:56.323Z,99.90
2019-02-27T07:31:25.071Z,99.90
2019-02-27T07:33:53.920Z,99.90
2019-02-27T07:36:22.836Z,99.90
2019-02-27T07:38:54.318Z,99.90
2019-02-27T07:41:22.140Z,99.90
2019-02-27T07:43:50.839Z,99.90
2019-02-27T07:46:22.248Z,99.90
2019-02-27T07:48:49.966Z,99.90
2019-02-27T07:51:20.769Z,99.90
2019-02-27T07:53:51.419Z,99.90
2019-02-27T07:56:19.511Z,99.90
2019-02-27T07:58:48.269Z,99.90
2019-02-27T08:01:17.121Z,99.90
2019-02-27T08:03:45.857Z,99.90
2019-02-27T08:06:14.590Z,99.90
2019-02-27T08:08:43.364Z,99.90
2019-02-27T08:11:13.678Z,99.90
2019-02-27T08:13:42.506Z,99.90
2019-02-27T08:16:11.277Z,99.90
2019-02-27T08:18:40.048Z,99.90
2019-02-27T08:21:08.913Z,99.90
2019-02-27T08:23:37.713Z,99.90
2019-02-27T08:26:06.451Z,99.90
2019-02-27T08:28:35.339Z,99.90
2019-02-27T08:31:04.155Z,99.90
2019-02-27T08:33:32.929Z,99.90
2019-02-27T08:36:01.785Z,99.90
2019-02-27T08:38:30.584Z,99.90
2019-02-27T08:40:59.423Z,99.90
2019-02-27T08:43:30.345Z,99.90
2019-02-27T08:46:02.085Z,99.90
2019-02-27T08:48:29.114Z,99.90
2019-02-27T08:50:57.919Z,99.90
2019-02-27T08:53:27.024Z,99.90
2019-02-27T08:55:55.975Z,99.90
2019-02-27T08:58:26.772Z,99.90
2019-02-27T09:00:55.069Z,99.90
2019-02-27T09:03:23.914Z,99.90
2019-02-27T09:05:53.706Z,99.90
2019-02-27T09:08:23.116Z,99.90
2019-02-27T09:10:51.950Z,99.90
2019-02-27T09:13:20.840Z,99.90
2019-02-27T09:15:49.774Z,99.90
2019-02-27T09:18:18.735Z,99.90
2019-02-27T09:20:47.726Z,99.90
2019-02-27T09:23:18.287Z,99.90
2019-02-27T09:25:46.849Z,99.90
2019-02-27T09:28:15.820Z,99.90
2019-02-27T09:30:44.700Z,99.90
2019-02-27T09:33:13.506Z,99.90
2019-02-27T09:35:42.555Z,99.90
2019-02-27T09:38:11.516Z,99.90
2019-02-27T09:40:40.504Z,99.90
2019-02-27T09:43:09.290Z,99.90
2019-02-27T09:45:38.165Z,99.90
2019-02-27T09:48:06.962Z,99.90
2019-02-27T09:50:40.913Z,99.90
2019-02-27T09:53:09.709Z,99.90
2019-02-27T09:55:38.566Z,99.90
2019-02-27T09:58:11.001Z,99.90
2019-02-27T10:00:59.217Z,99.90
2019-02-27T10:03:26.206Z,99.90
2019-02-27T10:05:55.087Z,99.90
2019-02-27T10:08:25.282Z,99.90
2019-02-27T10:10:54.614Z,99.90
2019-02-27T10:13:23.396Z,99.90
2019-02-27T10:15:52.338Z,99.90
2019-02-27T10:18:22.092Z,99.90
2019-02-27T10:20:50.996Z,99.90
2019-02-27T10:23:19.850Z,99.90
2019-02-27T10:25:49.938Z,99.90
2019-02-27T10:28:19.079Z,99.90
2019-02-27T10:30:50.095Z,99.90
2019-02-27T10:33:18.559Z,99.90
2019-02-27T10:35:48.347Z,99.90
2019-02-27T10:38:17.239Z,99.90
2019-02-27T10:40:46.797Z,99.90
2019-02-27T10:43:15.706Z,99.90
2019-02-27T10:45:48.238Z,99.90
2019-02-27T10:48:15.339Z,99.90
2019-02-27T10:50:44.265Z,99.90
2019-02-27T10:53:12.974Z,99.90
2019-02-27T10:55:42.099Z,99.90
2019-02-27T10:58:13.231Z,99.90
2019-02-27T11:00:41.701Z,99.90
2019-02-27T11:03:10.682Z,99.90
2019-02-27T11:05:40.213Z,97.90
2019-02-27T11:08:09.089Z,96.70
2019-02-27T11:10:38.003Z,94.00
2019-02-27T11:13:07.167Z,91.30
2019-02-27T11:15:41.121Z,83.70
2019-02-27T11:18:06.604Z,73.30
2019-02-27T11:20:35.466Z,75.20
2019-02-27T11:23:07.099Z,77.10
2019-02-27T11:25:34.882Z,64.40
2019-02-27T11:28:03.646Z,68.50
2019-02-27T11:30:36.845Z,64.80
2019-02-27T11:33:06.086Z,62.60
2019-02-27T11:35:34.999Z,63.50
2019-02-27T11:38:03.911Z,61.70
2019-02-27T11:40:32.746Z,62.20
2019-02-27T11:43:06.416Z,63.70
2019-02-27T11:45:31.998Z,59.60
2019-02-27T11:48:00.782Z,58.60
2019-02-27T11:50:29.569Z,58.70
2019-02-27T11:53:01.904Z,58.60
2019-02-27T11:55:28.899Z,57.50
2019-02-27T11:57:57.630Z,55.60
2019-02-27T12:00:28.314Z,55.60
2019-02-27T12:02:57.784Z,57.10
2019-02-27T12:05:33.028Z,57.10
2019-02-27T12:07:58.333Z,57.80
2019-02-27T12:10:31.938Z,53.80
2019-02-27T12:13:01.377Z,53.40
2019-02-27T12:15:30.484Z,52.80
2019-02-27T12:18:00.550Z,51.70
2019-02-27T12:20:30.184Z,51.50
2019-02-27T12:22:59.043Z,50.80
2019-02-27T12:25:29.972Z,50.40
2019-02-27T12:27:58.304Z,49.20
2019-02-27T12:30:29.533Z,50.20
2019-02-27T12:32:58.438Z,50.60
2019-02-27T12:35:32.449Z,48.70
2019-02-27T12:38:01.284Z,48.60
2019-02-27T12:40:30.174Z,49.30
2019-02-27T12:42:58.915Z,49.00
2019-02-27T12:45:29.792Z,48.20
2019-02-27T12:47:58.879Z,50.20
2019-02-27T12:50:31.198Z,50.50
2019-02-27T12:52:59.302Z,47.90
2019-02-27T12:55:28.736Z,47.30
2019-02-27T12:57:57.618Z,48.50
2019-02-27T13:00:31.548Z,48.30
2019-02-27T13:03:00.410Z,50.40
2019-02-27T13:05:29.733Z,50.00
2019-02-27T13:07:58.891Z,49.50
2019-02-27T13:10:32.847Z,50.00
2019-02-27T13:12:58.995Z,47.60
2019-02-27T13:15:28.752Z,47.50
2019-02-27T13:17:58.330Z,47.30
2019-02-27T13:20:32.065Z,46.30
2019-02-27T13:23:04.137Z,45.50
2019-02-27T13:25:31.276Z,45.50
2019-02-27T13:28:00.103Z,44.80
2019-02-27T13:30:29.682Z,44.70
2019-02-27T13:33:01.139Z,44.90
2019-02-27T13:35:29.899Z,45.50
2019-02-27T13:37:58.727Z,45.80
2019-02-27T13:40:28.920Z,46.40
2019-02-27T13:42:57.772Z,44.70
2019-02-27T13:45:29.011Z,45.50
2019-02-27T13:47:59.044Z,44.40
2019-02-27T13:50:28.135Z,44.90
2019-02-27T13:52:57.117Z,45.10
2019-02-27T13:55:25.949Z,44.50
2019-02-27T13:57:58.933Z,42.90
2019-02-27T14:00:34.408Z,42.30
2019-02-27T14:03:03.145Z,42.70
2019-02-27T14:05:35.081Z,41.30
2019-02-27T14:08:02.768Z,42.20
2019-02-27T14:10:32.827Z,42.20
2019-02-27T14:13:01.627Z,41.10
2019-02-27T14:15:31.529Z,39.20
2019-02-27T14:18:00.606Z,40.70
2019-02-27T14:20:29.534Z,41.00
2019-02-27T14:22:58.675Z,39.60
2019-02-27T14:25:32.581Z,39.90
2019-02-27T14:27:59.603Z,40.00
2019-02-27T14:30:35.638Z,40.10
2019-02-27T14:33:04.489Z,39.90
2019-02-27T14:35:36.300Z,39.90
2019-02-27T14:38:03.870Z,39.50
2019-02-27T14:40:37.672Z,38.90
2019-02-27T14:43:03.083Z,37.50
2019-02-27T14:45:31.913Z,38.30
2019-02-27T14:48:00.743Z,38.70
2019-02-27T14:50:33.589Z,40.00
2019-02-27T14:52:59.932Z,38.20
2019-02-27T14:55:28.888Z,38.20
2019-02-27T14:57:57.662Z,39.40
2019-02-27T15:00:33.806Z,37.50
2019-02-27T15:03:02.749Z,38.30
2019-02-27T15:05:31.660Z,37.90
2019-02-27T15:08:00.446Z,37.10
2019-02-27T15:10:29.521Z,38.10
2019-02-27T15:12:58.370Z,37.70
2019-02-27T15:15:29.893Z,40.30
2019-02-27T15:17:58.660Z,40.60
2019-02-27T15:20:28.966Z,40.20
2019-02-27T15:22:58.898Z,40.20
2019-02-27T15:25:28.017Z,39.70
2019-02-27T15:27:58.759Z,40.20
2019-02-27T15:30:29.954Z,39.60
2019-02-27T15:33:03.985Z,39.30
2019-02-27T15:35:29.328Z,39.80
2019-02-27T15:37:58.366Z,39.60
2019-02-27T15:40:29.611Z,41.50
2019-02-27T15:42:58.928Z,42.60
2019-02-27T15:45:28.699Z,41.60
2019-02-27T15:47:57.710Z,42.70
2019-02-27T15:50:29.496Z,43.20
2019-02-27T15:52:58.363Z,44.20
2019-02-27T15:55:30.145Z,44.40
2019-02-27T15:57:57.730Z,46.60
2019-02-27T16:00:27.577Z,47.50
2019-02-27T16:02:56.495Z,48.20
2019-02-27T16:05:30.118Z,48.30
2019-02-27T16:07:56.051Z,48.90
2019-02-27T16:10:28.569Z,49.80
2019-02-27T16:13:00.949Z,50.50
2019-02-27T16:15:28.222Z,51.40
2019-02-27T16:17:56.905Z,51.90
2019-02-27T16:20:28.989Z,53.90
2019-02-27T16:22:57.683Z,53.80
2019-02-27T16:25:27.867Z,54.70
2019-02-27T16:27:56.582Z,55.20
2019-02-27T16:30:32.871Z,55.70
2019-02-27T16:33:01.885Z,56.10
2019-02-27T16:35:30.721Z,56.50
2019-02-27T16:37:59.572Z,57.80
2019-02-27T16:40:29.582Z,59.60
2019-02-27T16:42:58.399Z,61.10
2019-02-27T16:45:33.555Z,62.90
2019-02-27T16:48:00.188Z,64.60
2019-02-27T16:50:29.055Z,67.00
2019-02-27T16:52:57.858Z,69.80
2019-02-27T16:55:27.829Z,71.30
2019-02-27T16:57:57.606Z,72.20
2019-02-27T17:00:37.899Z,74.50
2019-02-27T17:03:06.745Z,73.30
2019-02-27T17:05:35.637Z,73.10
2019-02-27T17:08:04.664Z,76.30
2019-02-27T17:10:35.986Z,72.50
2019-02-27T17:13:05.071Z,72.20
2019-02-27T17:15:35.767Z,72.30
2019-02-27T17:18:04.372Z,72.60
2019-02-27T17:20:33.349Z,73.70
2019-02-27T17:23:07.649Z,74.00
2019-02-27T17:25:32.712Z,75.20
2019-02-27T17:28:01.635Z,76.30
2019-02-27T17:30:36.575Z,77.20
2019-02-27T17:33:04.042Z,77.70
2019-02-27T17:35:33.204Z,79.30
2019-02-27T17:38:02.050Z,81.90
2019-02-27T17:40:30.820Z,85.80
2019-02-27T17:42:59.663Z,89.00
2019-02-27T17:45:28.795Z,91.30
2019-02-27T17:47:57.674Z,93.60
2019-02-27T17:50:31.042Z,93.20
2019-02-27T17:52:57.178Z,93.10
2019-02-27T17:55:27.342Z,93.80
2019-02-27T17:57:58.415Z,94.40
2019-02-27T18:00:39.610Z,94.90
2019-02-27T18:03:08.593Z,97.00
2019-02-27T18:05:37.444Z,98.50
2019-02-27T18:08:06.736Z,99.90
2019-02-27T18:10:40.401Z,99.90
2019-02-27T18:13:09.326Z,99.90
2019-02-27T18:15:38.230Z,99.90
2019-02-27T18:18:09.129Z,99.90
2019-02-27T18:20:37.540Z,99.90
2019-02-27T18:23:06.520Z,99.90
2019-02-27T18:25:35.454Z,99.90
2019-02-27T18:28:04.288Z,99.90
2019-02-27T18:30:33.294Z,99.90
2019-02-27T18:33:02.135Z,99.90
2019-02-27T18:35:30.952Z,99.90
2019-02-27T18:37:59.951Z,99.90
2019-02-27T18:40:28.785Z,99.90
2019-02-27T18:42:57.700Z,99.90
2019-02-27T18:45:28.439Z,99.90
2019-02-27T18:47:58.760Z,99.90
2019-02-27T18:50:30.006Z,99.90
2019-02-27T18:52:58.987Z,99.90
2019-02-27T18:55:30.982Z,99.90
2019-02-27T18:57:58.271Z,99.90
2019-02-27T19:00:28.423Z,99.90
2019-02-27T19:03:08.478Z,99.90
2019-02-27T19:05:40.839Z,99.90
2019-02-27T19:08:07.955Z,99.90
2019-02-27T19:10:41.003Z,99.90
2019-02-27T19:13:07.528Z,99.90
2019-02-27T19:15:36.331Z,99.90
2019-02-27T19:18:06.650Z,99.90
2019-02-27T19:20:46.407Z,99.90
2019-02-27T19:23:17.857Z,99.90
2019-02-27T19:25:45.945Z,99.90
2019-02-27T19:28:15.042Z,99.90
2019-02-27T19:30:43.932Z,99.90
2019-02-27T19:33:12.741Z,99.90
2019-02-27T19:35:41.755Z,99.90
2019-02-27T19:38:12.905Z,99.90
2019-02-27T19:40:41.387Z,99.90
2019-02-27T19:43:10.280Z,99.90
2019-02-27T19:45:39.214Z,99.90
2019-02-27T19:48:08.008Z,99.90
2019-02-27T19:50:37.138Z,99.90
2019-02-27T19:53:07.116Z,99.90
2019-02-27T19:55:36.167Z,99.90
2019-02-27T19:58:05.199Z,99.90
2019-02-27T20:00:35.520Z,99.90
2019-02-27T20:03:05.145Z,99.90
2019-02-27T20:05:36.419Z,99.90
2019-02-27T20:08:09.830Z,99.90
2019-02-27T20:10:36.461Z,99.90
2019-02-27T20:13:07.171Z,99.90
2019-02-27T20:15:42.750Z,99.90
2019-02-27T20:18:15.172Z,99.90
2019-02-27T20:20:47.084Z,99.90
2019-02-27T20:23:15.947Z,99.90
2019-02-27T20:25:44.794Z,99.90
2019-02-27T20:28:13.767Z,99.90
2019-02-27T20:30:42.644Z,99.90
2019-02-27T20:33:11.551Z,99.90
2019-02-27T20:35:40.346Z,99.90
2019-02-27T20:38:09.263Z,99.90
2019-02-27T20:40:38.115Z,99.90
2019-02-27T20:43:06.861Z,99.90
2019-02-27T20:45:35.756Z,99.90
2019-02-27T20:48:05.162Z,99.90
2019-02-27T20:50:36.801Z,99.90
2019-02-27T20:53:06.704Z,99.90
2019-02-27T20:55:35.940Z,99.90
2019-02-27T20:58:04.866Z,99.90
2019-02-27T21:00:36.523Z,99.90
2019-02-27T21:03:04.350Z,99.90
2019-02-27T21:05:33.179Z,99.90
2019-02-27T21:08:02.533Z,99.90
2019-02-27T21:10:33.570Z,99.90
2019-02-27T21:13:02.330Z,99.90
2019-02-27T21:15:33.199Z,99.90
2019-02-27T21:18:02.308Z,99.90
2019-02-27T21:20:33.130Z,99.90
2019-02-27T21:23:01.912Z,99.90
2019-02-27T21:25:30.992Z,99.90
2019-02-27T21:28:00.019Z,99.90
2019-02-27T21:30:28.945Z,99.90
2019-02-27T21:32:57.671Z,99.90
2019-02-27T21:35:29.657Z,99.90
2019-02-27T21:37:57.016Z,99.90
2019-02-27T21:40:25.909Z,99.90
2019-02-27T21:42:54.699Z,99.90
2019-02-27T21:45:24.391Z,99.90
2019-02-27T21:47:53.263Z,99.90
2019-02-27T21:50:26.489Z,99.90
2019-02-27T21:52:55.841Z,99.90
2019-02-27T21:55:24.932Z,99.90
2019-02-27T21:57:53.825Z,99.90
2019-02-27T22:00:28.249Z,99.90
2019-02-27T22:02:58.039Z,99.90
2019-02-27T22:05:26.982Z,99.90
2019-02-27T22:07:55.869Z,99.90
2019-02-27T22:10:24.580Z,99.90
2019-02-27T22:12:53.800Z,99.90
2019-02-27T22:15:30.440Z,99.90
2019-02-27T22:17:59.344Z,99.90
2019-02-27T22:20:28.262Z,99.90
2019-02-27T22:22:57.324Z,99.90
2019-02-27T22:25:30.121Z,99.90
2019-02-27T22:27:58.447Z,99.90
2019-02-27T22:30:27.231Z,99.90
2019-02-27T22:32:56.015Z,99.90
2019-02-27T22:35:25.194Z,99.90
2019-02-27T22:37:54.071Z,99.90
2019-02-27T22:40:23.840Z,99.90
2019-02-27T22:42:52.672Z,99.90
2019-02-27T22:45:21.901Z,99.90
2019-02-27T22:47:53.811Z,99.90
2019-02-27T22:50:21.939Z,99.90
2019-02-27T22:52:54.158Z,99.90
2019-02-27T22:55:21.727Z,99.90
2019-02-27T22:57:50.758Z,99.90
2019-02-27T23:00:49.423Z,99.90
2019-02-27T23:03:18.432Z,99.90
2019-02-27T23:05:47.257Z,99.90
2019-02-27T23:08:16.242Z,99.90
2019-02-27T23:10:45.134Z,99.90
2019-02-27T23:13:14.019Z,99.90
2019-02-27T23:15:42.838Z,99.90
2019-02-27T23:18:11.673Z,99.90
2019-02-27T23:20:40.474Z,99.90
2019-02-27T23:23:09.393Z,99.90
2019-02-27T23:25:38.282Z,99.90
2019-02-27T23:28:07.515Z,99.90
2019-02-27T23:30:36.433Z,99.90
2019-02-27T23:33:05.339Z,99.90
2019-02-27T23:35:34.187Z,99.90
2019-02-27T23:38:03.901Z,99.90
2019-02-27T23:40:32.913Z,99.90
2019-02-27T23:43:03.459Z,99.90
2019-02-27T23:45:32.231Z,99.90
2019-02-27T23:48:02.230Z,99.90
2019-02-27T23:50:31.552Z,99.90
2019-02-27T23:53:00.355Z,99.90
2019-02-27T23:55:29.183Z,99.90
2019-02-27T23:57:58.561Z,99.90
